sensor_id;sensor_type;location;lat;lon;timestamp;P1;durP1;ratioP1;P2;durP2;ratioP2
30247;SDS011;17063;50.892;4.702;2022-11-21T00:01:00;3.87;;;0.90;;
30247;SDS011;17063;50.892;4.702;2022-11-21T00:03:37;4.10;;;0.73;;
30247;SDS011;17063;50.892;4.702;2022-11-21T00:06:04;2.13;;;1.00;;
30247;SDS011;17063;50.892;4.702;2022-11-21T00:08:31;2.03;;;1.07;;
30247;SDS011;17063;50.892;4.702;2022-11-21T00:10:58;4.17;;;1.20;;
30247;SDS011;17063;50.892;4.702;2022-11-21T00:13:25;4.37;;;1.10;;
30247;SDS011;17063;50.892;4.702;2022-11-21T00:15:52;3.80;;;1.13;;
30247;SDS011;17063;50.892;4.702;2022-11-21T00:18:19;1.60;;;1.20;;
30247;SDS011;17063;50.892;4.702;2022-11-21T00:20:46;3.13;;;0.90;;
30247;SDS011;17063;50.892;4.702;2022-11-21T00:23:13;4.27;;;0.87;;
30247;SDS011;17063;50.892;4.702;2022-11-21T00:25:40;8.50;;;1.27;;
30247;SDS011;17063;50.892;4.702;2022-11-21T00:28:06;1.63;;;0.80;;
30247;SDS011;17063;50.892;4.702;2022-11-21T00:30:33;4.20;;;1.10;;
30247;SDS011;17063;50.892;4.702;2022-11-21T00:33:00;2.10;;;0.73;;
30247;SDS011;17063;50.892;4.702;2022-11-21T00:35:27;6.17;;;1.60;;
30247;SDS011;17063;50.892;4.702;2022-11-21T00:37:54;2.73;;;1.17;;
30247;SDS011;17063;50.892;4.702;2022-11-21T00:40:21;3.63;;;1.77;;
30247;SDS011;17063;50.892;4.702;2022-11-21T00:42:48;2.27;;;1.20;;
30247;SDS011;17063;50.892;4.702;2022-11-21T00:45:15;4.30;;;1.40;;
30247;SDS011;17063;50.892;4.702;2022-11-21T00:47:49;6.43;;;1.80;;
30247;SDS011;17063;50.892;4.702;2022-11-21T00:50:16;6.73;;;1.70;;
30247;SDS011;17063;50.892;4.702;2022-11-21T00:52:43;9.33;;;2.43;;
30247;SDS011;17063;50.892;4.702;2022-11-21T00:55:10;8.87;;;2.17;;
30247;SDS011;17063;50.892;4.702;2022-11-21T00:57:37;6.60;;;2.33;;
30247;SDS011;17063;50.892;4.702;2022-11-21T01:00:04;10.50;;;2.50;;
30247;SDS011;17063;50.892;4.702;2022-11-21T01:02:31;8.67;;;2.50;;
30247;SDS011;17063;50.892;4.702;2022-11-21T01:04:58;8.23;;;2.60;;
30247;SDS011;17063;50.892;4.702;2022-11-21T01:07:26;9.07;;;2.67;;
30247;SDS011;17063;50.892;4.702;2022-11-21T01:09:53;13.50;;;2.57;;
30247;SDS011;17063;50.892;4.702;2022-11-21T01:12:19;4.93;;;2.10;;
30247;SDS011;17063;50.892;4.702;2022-11-21T01:14:46;9.80;;;2.50;;
30247;SDS011;17063;50.892;4.702;2022-11-21T01:17:13;11.40;;;2.47;;
30247;SDS011;17063;50.892;4.702;2022-11-21T01:19:40;12.77;;;2.27;;
30247;SDS011;17063;50.892;4.702;2022-11-21T01:22:07;11.50;;;2.40;;
30247;SDS011;17063;50.892;4.702;2022-11-21T01:24:34;9.90;;;2.47;;
30247;SDS011;17063;50.892;4.702;2022-11-21T01:27:01;6.53;;;2.20;;
30247;SDS011;17063;50.892;4.702;2022-11-21T01:29:28;7.87;;;2.53;;
30247;SDS011;17063;50.892;4.702;2022-11-21T01:31:55;6.83;;;2.37;;
30247;SDS011;17063;50.892;4.702;2022-11-21T01:34:22;6.50;;;2.83;;
30247;SDS011;17063;50.892;4.702;2022-11-21T01:36:49;8.43;;;2.30;;
30247;SDS011;17063;50.892;4.702;2022-11-21T01:39:16;11.27;;;2.17;;
30247;SDS011;17063;50.892;4.702;2022-11-21T01:41:44;6.63;;;1.93;;
30247;SDS011;17063;50.892;4.702;2022-11-21T01:46:52;6.93;;;1.97;;
30247;SDS011;17063;50.892;4.702;2022-11-21T01:49:21;15.17;;;2.60;;
30247;SDS011;17063;50.892;4.702;2022-11-21T01:54:28;8.17;;;2.40;;
30247;SDS011;17063;50.892;4.702;2022-11-21T01:57:00;7.73;;;2.07;;
30247;SDS011;17063;50.892;4.702;2022-11-21T01:59:42;8.57;;;2.50;;
30247;SDS011;17063;50.892;4.702;2022-11-21T02:02:12;12.30;;;3.20;;
30247;SDS011;17063;50.892;4.702;2022-11-21T02:04:42;5.33;;;1.77;;
30247;SDS011;17063;50.892;4.702;2022-11-21T02:07:09;6.73;;;2.00;;
30247;SDS011;17063;50.892;4.702;2022-11-21T02:09:38;5.43;;;1.90;;
30247;SDS011;17063;50.892;4.702;2022-11-21T02:12:07;12.57;;;1.97;;
30247;SDS011;17063;50.892;4.702;2022-11-21T02:14:37;7.93;;;2.23;;
30247;SDS011;17063;50.892;4.702;2022-11-21T02:17:05;11.37;;;1.97;;
30247;SDS011;17063;50.892;4.702;2022-11-21T02:19:41;5.37;;;1.80;;
30247;SDS011;17063;50.892;4.702;2022-11-21T02:27:34;6.87;;;1.83;;
30247;SDS011;17063;50.892;4.702;2022-11-21T02:30:01;10.30;;;2.00;;
30247;SDS011;17063;50.892;4.702;2022-11-21T02:32:33;3.63;;;1.63;;
30247;SDS011;17063;50.892;4.702;2022-11-21T02:35:05;7.03;;;1.70;;
30247;SDS011;17063;50.892;4.702;2022-11-21T02:37:32;11.27;;;2.30;;
30247;SDS011;17063;50.892;4.702;2022-11-21T02:40:11;7.23;;;1.90;;
30247;SDS011;17063;50.892;4.702;2022-11-21T02:42:45;7.80;;;1.80;;
30247;SDS011;17063;50.892;4.702;2022-11-21T02:45:42;8.33;;;1.97;;
30247;SDS011;17063;50.892;4.702;2022-11-21T02:48:11;9.83;;;1.87;;
30247;SDS011;17063;50.892;4.702;2022-11-21T02:50:39;5.57;;;1.67;;
30247;SDS011;17063;50.892;4.702;2022-11-21T02:53:08;5.30;;;1.63;;
30247;SDS011;17063;50.892;4.702;2022-11-21T02:55:36;5.20;;;1.70;;
30247;SDS011;17063;50.892;4.702;2022-11-21T02:58:03;8.43;;;2.03;;
30247;SDS011;17063;50.892;4.702;2022-11-21T03:00:31;6.80;;;1.73;;
30247;SDS011;17063;50.892;4.702;2022-11-21T03:02:59;5.00;;;1.33;;
30247;SDS011;17063;50.892;4.702;2022-11-21T03:05:26;3.53;;;1.50;;
30247;SDS011;17063;50.892;4.702;2022-11-21T03:07:53;14.07;;;1.40;;
30247;SDS011;17063;50.892;4.702;2022-11-21T03:10:20;7.47;;;1.80;;
30247;SDS011;17063;50.892;4.702;2022-11-21T03:12:47;5.03;;;1.83;;
30247;SDS011;17063;50.892;4.702;2022-11-21T03:15:14;11.40;;;1.70;;
30247;SDS011;17063;50.892;4.702;2022-11-21T03:17:41;7.73;;;1.83;;
30247;SDS011;17063;50.892;4.702;2022-11-21T03:20:09;10.83;;;2.30;;
30247;SDS011;17063;50.892;4.702;2022-11-21T03:22:36;4.10;;;1.73;;
30247;SDS011;17063;50.892;4.702;2022-11-21T03:25:03;7.63;;;2.60;;
30247;SDS011;17063;50.892;4.702;2022-11-21T03:27:30;5.77;;;2.23;;
30247;SDS011;17063;50.892;4.702;2022-11-21T03:29:57;5.70;;;1.90;;
30247;SDS011;17063;50.892;4.702;2022-11-21T03:32:24;6.23;;;2.10;;
30247;SDS011;17063;50.892;4.702;2022-11-21T03:34:51;3.93;;;2.27;;
30247;SDS011;17063;50.892;4.702;2022-11-21T03:37:18;4.90;;;1.60;;
30247;SDS011;17063;50.892;4.702;2022-11-21T03:39:45;8.83;;;2.10;;
30247;SDS011;17063;50.892;4.702;2022-11-21T03:42:12;7.50;;;2.20;;
30247;SDS011;17063;50.892;4.702;2022-11-21T03:44:39;4.83;;;2.10;;
30247;SDS011;17063;50.892;4.702;2022-11-21T03:47:05;4.30;;;1.97;;
30247;SDS011;17063;50.892;4.702;2022-11-21T03:49:32;5.80;;;1.67;;
30247;SDS011;17063;50.892;4.702;2022-11-21T03:51:59;10.37;;;2.10;;
30247;SDS011;17063;50.892;4.702;2022-11-21T03:54:26;5.80;;;1.63;;
30247;SDS011;17063;50.892;4.702;2022-11-21T03:56:53;4.60;;;1.60;;
30247;SDS011;17063;50.892;4.702;2022-11-21T03:59:20;14.23;;;1.93;;
30247;SDS011;17063;50.892;4.702;2022-11-21T04:01:46;4.93;;;1.60;;
30247;SDS011;17063;50.892;4.702;2022-11-21T04:04:14;6.80;;;1.90;;
30247;SDS011;17063;50.892;4.702;2022-11-21T04:06:40;2.87;;;1.70;;
30247;SDS011;17063;50.892;4.702;2022-11-21T04:09:07;5.60;;;1.80;;
30247;SDS011;17063;50.892;4.702;2022-11-21T04:11:34;6.30;;;1.83;;
30247;SDS011;17063;50.892;4.702;2022-11-21T04:14:01;6.77;;;2.00;;
30247;SDS011;17063;50.892;4.702;2022-11-21T04:16:28;3.20;;;1.40;;
30247;SDS011;17063;50.892;4.702;2022-11-21T04:18:54;6.90;;;1.83;;
30247;SDS011;17063;50.892;4.702;2022-11-21T04:21:21;14.20;;;2.87;;
30247;SDS011;17063;50.892;4.702;2022-11-21T04:23:48;10.97;;;2.33;;
30247;SDS011;17063;50.892;4.702;2022-11-21T04:26:15;11.77;;;2.30;;
30247;SDS011;17063;50.892;4.702;2022-11-21T04:28:41;4.97;;;1.73;;
30247;SDS011;17063;50.892;4.702;2022-11-21T04:31:08;5.27;;;1.60;;
30247;SDS011;17063;50.892;4.702;2022-11-21T04:33:37;6.10;;;1.60;;
30247;SDS011;17063;50.892;4.702;2022-11-21T04:36:08;6.47;;;1.70;;
30247;SDS011;17063;50.892;4.702;2022-11-21T04:38:35;7.67;;;1.97;;
30247;SDS011;17063;50.892;4.702;2022-11-21T04:41:02;7.23;;;1.80;;
30247;SDS011;17063;50.892;4.702;2022-11-21T04:43:30;8.53;;;2.20;;
30247;SDS011;17063;50.892;4.702;2022-11-21T04:45:57;7.37;;;2.43;;
30247;SDS011;17063;50.892;4.702;2022-11-21T04:48:24;6.23;;;1.80;;
30247;SDS011;17063;50.892;4.702;2022-11-21T04:50:51;8.27;;;2.27;;
30247;SDS011;17063;50.892;4.702;2022-11-21T04:53:17;7.90;;;2.23;;
30247;SDS011;17063;50.892;4.702;2022-11-21T04:55:44;7.07;;;2.10;;
30247;SDS011;17063;50.892;4.702;2022-11-21T04:58:11;6.67;;;2.03;;
30247;SDS011;17063;50.892;4.702;2022-11-21T05:00:38;7.20;;;1.93;;
30247;SDS011;17063;50.892;4.702;2022-11-21T05:03:05;6.27;;;1.87;;
30247;SDS011;17063;50.892;4.702;2022-11-21T05:05:32;6.27;;;1.80;;
30247;SDS011;17063;50.892;4.702;2022-11-21T05:07:59;5.17;;;1.70;;
30247;SDS011;17063;50.892;4.702;2022-11-21T05:10:26;7.40;;;2.20;;
30247;SDS011;17063;50.892;4.702;2022-11-21T05:12:56;8.87;;;2.57;;
30247;SDS011;17063;50.892;4.702;2022-11-21T05:15:43;6.33;;;1.87;;
30247;SDS011;17063;50.892;4.702;2022-11-21T05:18:10;10.30;;;2.20;;
30247;SDS011;17063;50.892;4.702;2022-11-21T05:20:37;7.37;;;2.20;;
30247;SDS011;17063;50.892;4.702;2022-11-21T05:23:04;7.07;;;1.83;;
30247;SDS011;17063;50.892;4.702;2022-11-21T05:25:32;10.07;;;2.57;;
30247;SDS011;17063;50.892;4.702;2022-11-21T05:27:59;11.27;;;1.93;;
30247;SDS011;17063;50.892;4.702;2022-11-21T05:30:25;10.23;;;2.00;;
30247;SDS011;17063;50.892;4.702;2022-11-21T05:32:52;5.67;;;1.93;;
30247;SDS011;17063;50.892;4.702;2022-11-21T05:35:19;7.77;;;2.00;;
30247;SDS011;17063;50.892;4.702;2022-11-21T05:37:46;7.43;;;2.33;;
30247;SDS011;17063;50.892;4.702;2022-11-21T05:40:16;8.53;;;1.70;;
30247;SDS011;17063;50.892;4.702;2022-11-21T05:42:47;10.23;;;2.37;;
30247;SDS011;17063;50.892;4.702;2022-11-21T05:45:32;8.20;;;2.13;;
30247;SDS011;17063;50.892;4.702;2022-11-21T05:47:59;5.07;;;1.83;;
30247;SDS011;17063;50.892;4.702;2022-11-21T05:50:26;5.30;;;1.97;;
30247;SDS011;17063;50.892;4.702;2022-11-21T05:52:53;10.33;;;2.20;;
30247;SDS011;17063;50.892;4.702;2022-11-21T05:55:20;6.37;;;1.67;;
30247;SDS011;17063;50.892;4.702;2022-11-21T05:57:47;4.93;;;1.30;;
30247;SDS011;17063;50.892;4.702;2022-11-21T06:00:14;12.10;;;2.07;;
30247;SDS011;17063;50.892;4.702;2022-11-21T06:02:41;6.10;;;2.40;;
30247;SDS011;17063;50.892;4.702;2022-11-21T06:05:26;5.67;;;1.87;;
30247;SDS011;17063;50.892;4.702;2022-11-21T06:07:53;5.70;;;1.53;;
30247;SDS011;17063;50.892;4.702;2022-11-21T06:10:20;8.90;;;1.80;;
30247;SDS011;17063;50.892;4.702;2022-11-21T06:12:47;5.63;;;1.70;;
30247;SDS011;17063;50.892;4.702;2022-11-21T06:15:14;5.07;;;1.60;;
30247;SDS011;17063;50.892;4.702;2022-11-21T06:17:41;7.87;;;1.77;;
30247;SDS011;17063;50.892;4.702;2022-11-21T06:20:08;6.77;;;1.90;;
30247;SDS011;17063;50.892;4.702;2022-11-21T06:22:35;6.23;;;1.80;;
30247;SDS011;17063;50.892;4.702;2022-11-21T06:25:02;6.53;;;1.73;;
30247;SDS011;17063;50.892;4.702;2022-11-21T06:27:30;8.20;;;1.73;;
30247;SDS011;17063;50.892;4.702;2022-11-21T06:29:56;7.23;;;1.63;;
30247;SDS011;17063;50.892;4.702;2022-11-21T06:32:23;4.27;;;1.77;;
30247;SDS011;17063;50.892;4.702;2022-11-21T06:34:51;5.67;;;1.80;;
30247;SDS011;17063;50.892;4.702;2022-11-21T06:37:17;7.60;;;1.20;;
30247;SDS011;17063;50.892;4.702;2022-11-21T06:39:44;4.87;;;1.63;;
30247;SDS011;17063;50.892;4.702;2022-11-21T06:42:11;9.30;;;1.93;;
30247;SDS011;17063;50.892;4.702;2022-11-21T06:44:38;10.93;;;1.80;;
30247;SDS011;17063;50.892;4.702;2022-11-21T06:47:05;6.13;;;1.20;;
30247;SDS011;17063;50.892;4.702;2022-11-21T06:49:32;6.97;;;1.53;;
30247;SDS011;17063;50.892;4.702;2022-11-21T06:51:59;2.43;;;1.13;;
30247;SDS011;17063;50.892;4.702;2022-11-21T06:54:26;7.30;;;1.60;;
30247;SDS011;17063;50.892;4.702;2022-11-21T06:56:53;4.83;;;1.90;;
30247;SDS011;17063;50.892;4.702;2022-11-21T06:59:20;7.40;;;1.90;;
30247;SDS011;17063;50.892;4.702;2022-11-21T07:01:47;4.07;;;1.53;;
30247;SDS011;17063;50.892;4.702;2022-11-21T07:04:15;6.60;;;1.90;;
30247;SDS011;17063;50.892;4.702;2022-11-21T07:06:43;9.97;;;2.40;;
30247;SDS011;17063;50.892;4.702;2022-11-21T07:09:12;8.70;;;1.93;;
30247;SDS011;17063;50.892;4.702;2022-11-21T07:11:59;6.57;;;1.63;;
30247;SDS011;17063;50.892;4.702;2022-11-21T07:14:47;14.23;;;1.80;;
30247;SDS011;17063;50.892;4.702;2022-11-21T07:17:14;10.33;;;2.00;;
30247;SDS011;17063;50.892;4.702;2022-11-21T07:19:41;5.47;;;1.70;;
30247;SDS011;17063;50.892;4.702;2022-11-21T07:22:08;5.40;;;1.90;;
30247;SDS011;17063;50.892;4.702;2022-11-21T07:24:35;10.13;;;2.30;;
30247;SDS011;17063;50.892;4.702;2022-11-21T07:27:02;9.70;;;2.13;;
30247;SDS011;17063;50.892;4.702;2022-11-21T07:29:31;8.70;;;1.80;;
30247;SDS011;17063;50.892;4.702;2022-11-21T07:31:58;7.70;;;2.83;;
30247;SDS011;17063;50.892;4.702;2022-11-21T07:34:25;8.80;;;2.00;;
30247;SDS011;17063;50.892;4.702;2022-11-21T07:36:52;6.57;;;2.17;;
30247;SDS011;17063;50.892;4.702;2022-11-21T07:39:19;8.40;;;2.47;;
30247;SDS011;17063;50.892;4.702;2022-11-21T07:41:46;14.03;;;2.67;;
30247;SDS011;17063;50.892;4.702;2022-11-21T07:44:13;11.27;;;2.67;;
30247;SDS011;17063;50.892;4.702;2022-11-21T07:46:40;16.30;;;3.00;;
30247;SDS011;17063;50.892;4.702;2022-11-21T07:49:07;12.10;;;4.10;;
30247;SDS011;17063;50.892;4.702;2022-11-21T07:51:34;14.23;;;2.70;;
30247;SDS011;17063;50.892;4.702;2022-11-21T07:54:01;11.47;;;3.07;;
30247;SDS011;17063;50.892;4.702;2022-11-21T07:56:28;14.27;;;2.93;;
30247;SDS011;17063;50.892;4.702;2022-11-21T07:58:54;11.63;;;3.43;;
30247;SDS011;17063;50.892;4.702;2022-11-21T08:01:21;12.40;;;3.20;;
30247;SDS011;17063;50.892;4.702;2022-11-21T08:03:48;11.50;;;2.40;;
30247;SDS011;17063;50.892;4.702;2022-11-21T08:06:15;11.53;;;2.73;;
30247;SDS011;17063;50.892;4.702;2022-11-21T08:08:42;11.07;;;2.70;;
30247;SDS011;17063;50.892;4.702;2022-11-21T08:11:09;9.80;;;2.80;;
30247;SDS011;17063;50.892;4.702;2022-11-21T08:13:36;7.20;;;2.00;;
30247;SDS011;17063;50.892;4.702;2022-11-21T08:16:04;13.70;;;2.33;;
30247;SDS011;17063;50.892;4.702;2022-11-21T08:18:31;10.20;;;2.30;;
30247;SDS011;17063;50.892;4.702;2022-11-21T08:21:02;8.20;;;3.27;;
30247;SDS011;17063;50.892;4.702;2022-11-21T08:23:29;3.90;;;1.57;;
30247;SDS011;17063;50.892;4.702;2022-11-21T08:25:57;12.40;;;2.30;;
30247;SDS011;17063;50.892;4.702;2022-11-21T08:28:24;9.03;;;2.03;;
30247;SDS011;17063;50.892;4.702;2022-11-21T08:30:51;8.73;;;2.00;;
30247;SDS011;17063;50.892;4.702;2022-11-21T08:33:20;8.23;;;1.87;;
30247;SDS011;17063;50.892;4.702;2022-11-21T08:35:47;10.37;;;2.10;;
30247;SDS011;17063;50.892;4.702;2022-11-21T08:38:14;7.33;;;2.00;;
30247;SDS011;17063;50.892;4.702;2022-11-21T08:40:41;7.60;;;2.10;;
30247;SDS011;17063;50.892;4.702;2022-11-21T08:43:11;10.67;;;1.80;;
30247;SDS011;17063;50.892;4.702;2022-11-21T08:45:43;8.07;;;2.07;;
30247;SDS011;17063;50.892;4.702;2022-11-21T08:48:10;8.03;;;1.80;;
30247;SDS011;17063;50.892;4.702;2022-11-21T08:50:37;9.73;;;2.17;;
30247;SDS011;17063;50.892;4.702;2022-11-21T08:53:04;4.80;;;1.77;;
30247;SDS011;17063;50.892;4.702;2022-11-21T08:55:31;8.53;;;1.80;;
30247;SDS011;17063;50.892;4.702;2022-11-21T08:57:58;6.30;;;1.90;;
30247;SDS011;17063;50.892;4.702;2022-11-21T09:00:25;6.53;;;1.80;;
30247;SDS011;17063;50.892;4.702;2022-11-21T09:02:52;7.07;;;2.00;;
30247;SDS011;17063;50.892;4.702;2022-11-21T09:05:21;4.60;;;2.03;;
30247;SDS011;17063;50.892;4.702;2022-11-21T09:07:54;9.83;;;2.20;;
30247;SDS011;17063;50.892;4.702;2022-11-21T09:10:22;6.60;;;2.10;;
30247;SDS011;17063;50.892;4.702;2022-11-21T09:12:49;5.20;;;2.07;;
30247;SDS011;17063;50.892;4.702;2022-11-21T09:15:16;14.03;;;2.60;;
30247;SDS011;17063;50.892;4.702;2022-11-21T09:18:02;5.97;;;2.80;;
30247;SDS011;17063;50.892;4.702;2022-11-21T09:20:30;11.10;;;3.20;;
30247;SDS011;17063;50.892;4.702;2022-11-21T09:23:06;10.10;;;2.63;;
30247;SDS011;17063;50.892;4.702;2022-11-21T09:25:36;21.73;;;3.00;;
30247;SDS011;17063;50.892;4.702;2022-11-21T09:28:03;18.17;;;3.27;;
30247;SDS011;17063;50.892;4.702;2022-11-21T09:30:32;11.77;;;3.30;;
30247;SDS011;17063;50.892;4.702;2022-11-21T09:33:00;15.30;;;4.10;;
30247;SDS011;17063;50.892;4.702;2022-11-21T09:35:30;14.60;;;3.27;;
30247;SDS011;17063;50.892;4.702;2022-11-21T09:37:58;11.90;;;3.43;;
30247;SDS011;17063;50.892;4.702;2022-11-21T09:40:28;8.77;;;2.63;;
30247;SDS011;17063;50.892;4.702;2022-11-21T09:45:51;6.37;;;2.63;;
30247;SDS011;17063;50.892;4.702;2022-11-21T09:48:30;8.50;;;3.10;;
30247;SDS011;17063;50.892;4.702;2022-11-21T09:51:03;8.27;;;2.50;;
30247;SDS011;17063;50.892;4.702;2022-11-21T09:53:37;9.40;;;2.80;;
30247;SDS011;17063;50.892;4.702;2022-11-21T09:56:13;11.40;;;2.87;;
30247;SDS011;17063;50.892;4.702;2022-11-21T09:58:46;14.33;;;2.77;;
30247;SDS011;17063;50.892;4.702;2022-11-21T10:01:17;7.17;;;2.63;;
30247;SDS011;17063;50.892;4.702;2022-11-21T10:03:44;22.27;;;3.47;;
30247;SDS011;17063;50.892;4.702;2022-11-21T10:06:29;25.93;;;3.27;;
30247;SDS011;17063;50.892;4.702;2022-11-21T10:17:51;8.73;;;2.40;;
30247;SDS011;17063;50.892;4.702;2022-11-21T10:26:15;6.60;;;2.23;;
30247;SDS011;17063;50.892;4.702;2022-11-21T10:29:08;9.57;;;2.60;;
30247;SDS011;17063;50.892;4.702;2022-11-21T10:31:42;11.57;;;2.73;;
30247;SDS011;17063;50.892;4.702;2022-11-21T10:34:11;19.73;;;3.10;;
30247;SDS011;17063;50.892;4.702;2022-11-21T10:36:39;5.03;;;2.53;;
30247;SDS011;17063;50.892;4.702;2022-11-21T10:39:22;8.17;;;2.73;;
30247;SDS011;17063;50.892;4.702;2022-11-21T10:42:00;8.67;;;3.20;;
30247;SDS011;17063;50.892;4.702;2022-11-21T10:44:30;8.83;;;2.90;;
30247;SDS011;17063;50.892;4.702;2022-11-21T10:47:16;6.00;;;3.37;;
30247;SDS011;17063;50.892;4.702;2022-11-21T10:49:56;5.43;;;2.80;;
30247;SDS011;17063;50.892;4.702;2022-11-21T10:52:30;5.37;;;3.03;;
30247;SDS011;17063;50.892;4.702;2022-11-21T10:55:05;6.47;;;2.53;;
30247;SDS011;17063;50.892;4.702;2022-11-21T10:57:38;7.77;;;3.23;;
30247;SDS011;17063;50.892;4.702;2022-11-21T11:05:26;9.37;;;2.90;;
30247;SDS011;17063;50.892;4.702;2022-11-21T11:08:01;4.47;;;2.70;;
30247;SDS011;17063;50.892;4.702;2022-11-21T11:10:35;5.63;;;2.40;;
30247;SDS011;17063;50.892;4.702;2022-11-21T11:13:17;11.17;;;2.93;;
30247;SDS011;17063;50.892;4.702;2022-11-21T11:16:15;6.80;;;2.57;;
30247;SDS011;17063;50.892;4.702;2022-11-21T11:18:49;12.93;;;2.80;;
30247;SDS011;17063;50.892;4.702;2022-11-21T11:21:29;5.07;;;2.20;;
30247;SDS011;17063;50.892;4.702;2022-11-21T11:29:21;12.20;;;2.50;;
30247;SDS011;17063;50.892;4.702;2022-11-21T11:31:51;8.47;;;2.60;;
30247;SDS011;17063;50.892;4.702;2022-11-21T11:34:26;4.60;;;2.50;;
30247;SDS011;17063;50.892;4.702;2022-11-21T11:39:50;9.13;;;2.50;;
30247;SDS011;17063;50.892;4.702;2022-11-21T11:42:34;12.33;;;3.50;;
30247;SDS011;17063;50.892;4.702;2022-11-21T11:45:46;7.97;;;2.63;;
30247;SDS011;17063;50.892;4.702;2022-11-21T11:48:33;11.37;;;3.00;;
30247;SDS011;17063;50.892;4.702;2022-11-21T11:51:29;11.07;;;3.03;;
30247;SDS011;17063;50.892;4.702;2022-11-21T11:54:20;10.20;;;2.63;;
30247;SDS011;17063;50.892;4.702;2022-11-21T11:57:00;10.00;;;3.23;;
30247;SDS011;17063;50.892;4.702;2022-11-21T11:59:31;9.93;;;2.70;;
30247;SDS011;17063;50.892;4.702;2022-11-21T12:04:54;11.77;;;2.80;;
30247;SDS011;17063;50.892;4.702;2022-11-21T12:07:30;7.60;;;2.67;;
30247;SDS011;17063;50.892;4.702;2022-11-21T12:10:42;12.33;;;3.50;;
30247;SDS011;17063;50.892;4.702;2022-11-21T12:13:36;11.17;;;3.03;;
30247;SDS011;17063;50.892;4.702;2022-11-21T12:16:05;11.03;;;3.10;;
30247;SDS011;17063;50.892;4.702;2022-11-21T12:18:47;9.43;;;3.00;;
30247;SDS011;17063;50.892;4.702;2022-11-21T12:21:18;7.33;;;2.83;;
30247;SDS011;17063;50.892;4.702;2022-11-21T12:23:49;8.63;;;2.93;;
30247;SDS011;17063;50.892;4.702;2022-11-21T12:32:08;9.80;;;3.00;;
30247;SDS011;17063;50.892;4.702;2022-11-21T12:45:49;16.73;;;2.77;;
30247;SDS011;17063;50.892;4.702;2022-11-21T12:51:44;10.17;;;2.37;;
30247;SDS011;17063;50.892;4.702;2022-11-21T12:54:51;9.70;;;2.60;;
30247;SDS011;17063;50.892;4.702;2022-11-21T12:57:28;13.93;;;3.73;;
30247;SDS011;17063;50.892;4.702;2022-11-21T13:05:28;8.53;;;2.90;;
30247;SDS011;17063;50.892;4.702;2022-11-21T13:08:05;10.30;;;3.13;;
30247;SDS011;17063;50.892;4.702;2022-11-21T13:10:34;14.50;;;2.80;;
30247;SDS011;17063;50.892;4.702;2022-11-21T13:16:00;10.47;;;2.90;;
30247;SDS011;17063;50.892;4.702;2022-11-21T13:18:33;6.50;;;2.57;;
30247;SDS011;17063;50.892;4.702;2022-11-21T13:24:07;19.17;;;2.90;;
30247;SDS011;17063;50.892;4.702;2022-11-21T13:29:14;8.60;;;2.73;;
30247;SDS011;17063;50.892;4.702;2022-11-21T13:31:41;11.50;;;2.63;;
30247;SDS011;17063;50.892;4.702;2022-11-21T13:36:57;11.13;;;2.83;;
30247;SDS011;17063;50.892;4.702;2022-11-21T13:39:28;11.27;;;2.30;;
30247;SDS011;17063;50.892;4.702;2022-11-21T13:42:00;10.87;;;2.20;;
30247;SDS011;17063;50.892;4.702;2022-11-21T13:44:52;8.70;;;2.50;;
30247;SDS011;17063;50.892;4.702;2022-11-21T13:55:17;9.57;;;1.83;;
30247;SDS011;17063;50.892;4.702;2022-11-21T13:58:04;8.07;;;1.97;;
30247;SDS011;17063;50.892;4.702;2022-11-21T14:06:44;3.13;;;1.60;;
30247;SDS011;17063;50.892;4.702;2022-11-21T14:09:19;8.90;;;2.00;;
30247;SDS011;17063;50.892;4.702;2022-11-21T14:11:58;7.50;;;2.50;;
30247;SDS011;17063;50.892;4.702;2022-11-21T14:20:13;4.60;;;1.77;;
30247;SDS011;17063;50.892;4.702;2022-11-21T14:22:52;7.73;;;2.10;;
30247;SDS011;17063;50.892;4.702;2022-11-21T14:28:02;4.80;;;1.77;;
30247;SDS011;17063;50.892;4.702;2022-11-21T14:30:33;6.73;;;1.97;;
30247;SDS011;17063;50.892;4.702;2022-11-21T14:33:21;14.13;;;2.20;;
30247;SDS011;17063;50.892;4.702;2022-11-21T14:35:50;6.80;;;2.07;;
30247;SDS011;17063;50.892;4.702;2022-11-21T14:38:20;5.73;;;1.80;;
30247;SDS011;17063;50.892;4.702;2022-11-21T14:40:50;7.10;;;1.93;;
30247;SDS011;17063;50.892;4.702;2022-11-21T14:43:43;8.40;;;2.17;;
30247;SDS011;17063;50.892;4.702;2022-11-21T14:46:14;6.70;;;1.83;;
30247;SDS011;17063;50.892;4.702;2022-11-21T14:48:41;6.30;;;1.60;;
30247;SDS011;17063;50.892;4.702;2022-11-21T14:51:10;3.07;;;1.50;;
30247;SDS011;17063;50.892;4.702;2022-11-21T14:53:41;4.37;;;1.53;;
30247;SDS011;17063;50.892;4.702;2022-11-21T14:56:09;7.23;;;1.70;;
30247;SDS011;17063;50.892;4.702;2022-11-21T14:58:39;5.53;;;1.90;;
30247;SDS011;17063;50.892;4.702;2022-11-21T15:01:12;5.53;;;2.10;;
30247;SDS011;17063;50.892;4.702;2022-11-21T15:03:56;11.13;;;2.60;;
30247;SDS011;17063;50.892;4.702;2022-11-21T15:06:28;9.90;;;1.83;;
30247;SDS011;17063;50.892;4.702;2022-11-21T15:08:59;4.40;;;1.83;;
30247;SDS011;17063;50.892;4.702;2022-11-21T15:14:35;5.47;;;1.60;;
30247;SDS011;17063;50.892;4.702;2022-11-21T15:17:15;5.23;;;1.50;;
30247;SDS011;17063;50.892;4.702;2022-11-21T15:19:46;6.90;;;1.73;;
30247;SDS011;17063;50.892;4.702;2022-11-21T15:22:37;7.57;;;1.90;;
30247;SDS011;17063;50.892;4.702;2022-11-21T15:25:06;8.10;;;2.53;;
30247;SDS011;17063;50.892;4.702;2022-11-21T15:27:35;9.63;;;1.87;;
30247;SDS011;17063;50.892;4.702;2022-11-21T15:35:54;11.60;;;2.50;;
30247;SDS011;17063;50.892;4.702;2022-11-21T15:38:29;6.03;;;1.73;;
30247;SDS011;17063;50.892;4.702;2022-11-21T15:48:51;4.93;;;1.73;;
30247;SDS011;17063;50.892;4.702;2022-11-21T15:51:20;11.40;;;1.83;;
30247;SDS011;17063;50.892;4.702;2022-11-21T15:54:10;9.07;;;1.70;;
30247;SDS011;17063;50.892;4.702;2022-11-21T15:56:38;4.13;;;1.70;;
30247;SDS011;17063;50.892;4.702;2022-11-21T15:59:06;11.60;;;1.73;;
30247;SDS011;17063;50.892;4.702;2022-11-21T16:01:34;5.67;;;1.57;;
30247;SDS011;17063;50.892;4.702;2022-11-21T16:04:03;6.77;;;1.53;;
30247;SDS011;17063;50.892;4.702;2022-11-21T16:06:31;7.43;;;1.53;;
30247;SDS011;17063;50.892;4.702;2022-11-21T16:08:58;3.53;;;1.77;;
30247;SDS011;17063;50.892;4.702;2022-11-21T16:11:27;7.03;;;1.77;;
30247;SDS011;17063;50.892;4.702;2022-11-21T16:13:55;14.10;;;2.60;;
30247;SDS011;17063;50.892;4.702;2022-11-21T16:16:27;10.40;;;1.73;;
30247;SDS011;17063;50.892;4.702;2022-11-21T16:18:57;7.33;;;2.23;;
30247;SDS011;17063;50.892;4.702;2022-11-21T16:21:24;6.30;;;1.67;;
30247;SDS011;17063;50.892;4.702;2022-11-21T16:23:52;7.60;;;1.90;;
30247;SDS011;17063;50.892;4.702;2022-11-21T16:26:19;9.67;;;2.17;;
30247;SDS011;17063;50.892;4.702;2022-11-21T16:28:46;7.43;;;1.80;;
30247;SDS011;17063;50.892;4.702;2022-11-21T16:31:29;5.00;;;1.70;;
30247;SDS011;17063;50.892;4.702;2022-11-21T16:33:57;8.67;;;1.93;;
30247;SDS011;17063;50.892;4.702;2022-11-21T16:36:25;7.13;;;1.67;;
30247;SDS011;17063;50.892;4.702;2022-11-21T16:38:53;9.50;;;1.90;;
30247;SDS011;17063;50.892;4.702;2022-11-21T16:41:20;5.73;;;1.70;;
30247;SDS011;17063;50.892;4.702;2022-11-21T16:43:51;5.03;;;2.00;;
30247;SDS011;17063;50.892;4.702;2022-11-21T16:46:22;9.80;;;2.10;;
30247;SDS011;17063;50.892;4.702;2022-11-21T16:48:56;8.43;;;2.20;;
30247;SDS011;17063;50.892;4.702;2022-11-21T16:51:27;7.83;;;2.23;;
30247;SDS011;17063;50.892;4.702;2022-11-21T16:53:56;6.63;;;1.90;;
30247;SDS011;17063;50.892;4.702;2022-11-21T16:56:34;6.73;;;2.00;;
30247;SDS011;17063;50.892;4.702;2022-11-21T16:59:01;11.10;;;2.20;;
30247;SDS011;17063;50.892;4.702;2022-11-21T17:01:28;8.13;;;1.87;;
30247;SDS011;17063;50.892;4.702;2022-11-21T17:03:55;7.57;;;2.37;;